CST,Max TemperatureF,Mean TemperatureF,Min TemperatureF,Max Dew PointF,MeanDew PointF,Min DewpointF,Max Humidity, Mean Humidity, Min Humidity, Max Sea Level PressureIn, Mean Sea Level PressureIn, Min Sea Level PressureIn, Max VisibilityMiles, Mean VisibilityMiles, Min VisibilityMiles, Max Wind SpeedMPH, Mean Wind SpeedMPH, Max Gust SpeedMPH,PrecipitationIn, CloudCover, Events, WindDirDegrees
2012-11-1,80,60,40,54,45,40,100,68,35,30.06,30.00,29.91,10,4,0,10,3,15,0.00,0,Fog,100
2012-11-2,87,66,44,57,50,44,100,65,30,29.99,29.94,29.88,10,4,0,16,3,21,0.00,0,Fog,192
2012-11-3,83,66,48,63,52,43,100,71,42,30.07,30.01,29.95,10,7,0,16,4,20,T,2,Fog,274
2012-11-4,69,58,47,53,48,45,93,68,42,30.17,30.11,30.06,10,9,2,14,5,17,0.01,5,Rain,106
2012-11-5,72,58,44,49,44,35,93,61,28,30.08,30.02,29.92,10,9,5,17,5,26,0.00,4,,10
2012-11-6,70,52,33,42,38,32,100,64,28,30.14,30.06,30.00,10,9,3,13,3,16,0.00,0,,253
2012-11-7,71,51,30,43,33,26,100,60,19,30.17,30.11,30.06,10,5,0,15,4,23,0.00,0,Fog,26
2012-11-8,69,52,35,43,39,35,92,63,33,30.24,30.13,30.05,10,10,10,13,6,19,0.00,0,,93
2012-11-9,79,62,44,58,51,42,92,70,47,30.13,30.05,29.96,10,10,9,16,6,24,0.00,2,,141
2012-11-10,79,64,49,59,56,49,93,70,47,30.10,30.01,29.92,10,9,6,17,7,26,0.00,5,,140
2012-11-11,69,58,46,65,58,40,93,81,68,30.19,29.93,29.79,10,7,0,18,8,28,0.00,8,Fog-Rain,152
2012-11-12,59,45,30,37,27,17,92,57,21,30.50,30.40,30.23,10,10,10,13,4,16,0.00,1,,354
2012-11-13,59,43,26,35,28,21,92,58,24,30.54,30.45,30.36,10,10,5,14,2,17,0.00,0,,106
2012-11-14,61,45,29,35,30,24,100,63,25,30.45,30.39,30.30,10,6,0,8,1,12,0.00,0,Fog,68
2012-11-15,62,45,27,36,29,25,100,64,27,30.37,30.33,30.26,10,5,1,7,1,9,0.00,0,,65
2012-11-16,65,46,27,38,29,26,100,62,24,30.43,30.37,30.32,10,4,0,10,2,16,0.00,0,Fog,100
2012-11-17,66,47,27,38,30,25,100,62,24,30.45,30.37,30.31,10,6,1,9,2,14,0.00,0,,93
2012-11-18,67,48,29,41,33,28,100,65,29,30.37,30.31,30.24,10,6,1,10,3,16,0.00,0,,99
2012-11-19,66,54,41,47,43,39,92,66,40,30.28,30.22,30.16,10,9,7,9,3,12,T,7,Rain,96
2012-11-20,78,59,40,51,46,40,93,64,35,30.20,30.16,30.09,10,6,0,10,2,13,0.00,2,Fog,89
2012-11-21,75,55,34,48,40,34,100,66,31,30.29,30.21,30.15,10,4,0,7,2,11,0.00,0,Fog,74
2012-11-22,77,58,38,55,46,37,100,67,33,30.17,30.11,30.02,10,8,2,20,4,27,0.01,2,Rain,172
2012-11-23,64,49,33,56,42,23,100,61,21,30.40,30.25,30.13,10,6,0,17,7,24,T,5,Fog-Rain,357
2012-11-24,57,40,23,31,25,20,92,58,24,30.40,30.28,30.15,10,10,10,7,1,10,0.00,0,,149
2012-11-25,69,48,26,43,34,24,92,63,34,30.14,30.01,29.90,10,10,7,13,4,18,0.00,0,,104
2012-11-26,64,54,43,57,51,41,100,86,71,30.19,30.00,29.92,10,5,1,17,6,25,0.00,8,,56
2012-11-27,59,45,31,43,33,29,92,63,33,30.40,30.32,30.21,10,10,8,13,4,17,0.00,2,,52
2012-11-28,59,43,26,35,31,25,100,69,37,30.49,30.39,30.32,10,8,2,9,3,13,0.00,0,,101
2012-11-29,66,47,27,37,30,27,100,63,26,30.33,30.27,30.16,10,5,0,10,3,16,0.00,0,Fog,96
2012-11-30,63,49,35,54,46,32,92,77,62,30.21,30.15,30.09,10,7,6,8,3,10,0.00,7,,79